createdAt,value
2022-09-22T00:01:43.858Z,5.10
2022-09-22T00:04:14.496Z,5.12
2022-09-22T00:06:44.744Z,5.10
2022-09-22T00:09:14.301Z,5.08
2022-09-22T00:11:45.242Z,5.08
2022-09-22T00:14:15.458Z,5.09
2022-09-22T00:16:47.186Z,5.10
2022-09-22T00:19:18.269Z,5.08
2022-09-22T00:21:47.241Z,5.06
2022-09-22T00:24:16.066Z,5.06
2022-09-22T00:26:44.617Z,5.04
2022-09-22T00:29:13.779Z,5.02
2022-09-22T00:31:45.407Z,5.00
2022-09-22T00:34:17.155Z,4.98
2022-09-22T00:36:47.122Z,4.97
2022-09-22T00:39:16.408Z,4.95
2022-09-22T00:41:47.981Z,4.90
2022-09-22T00:44:32.795Z,4.89
2022-09-22T00:47:09.783Z,4.86
2022-09-22T00:49:45.949Z,4.83
2022-09-22T00:52:17.410Z,4.81
2022-09-22T00:54:45.748Z,4.79
2022-09-22T00:57:18.044Z,4.74
2022-09-22T00:59:49.922Z,4.71
2022-09-22T01:02:21.163Z,4.70
2022-09-22T01:04:52.687Z,4.68
2022-09-22T01:07:25.238Z,4.66
2022-09-22T01:09:55.626Z,4.62
2022-09-22T01:12:26.135Z,4.60
2022-09-22T01:15:10.489Z,4.57
2022-09-22T01:17:48.273Z,4.57
2022-09-22T01:20:42.773Z,4.53
2022-09-22T01:23:38.941Z,4.56
2022-09-22T01:26:25.962Z,4.58
2022-09-22T01:29:18.936Z,4.61
2022-09-22T01:31:57.086Z,4.61
2022-09-22T01:34:31.555Z,4.61
2022-09-22T01:37:06.778Z,4.60
2022-09-22T01:39:39.516Z,4.59
2022-09-22T01:42:12.989Z,4.58
2022-09-22T01:44:49.304Z,4.58
2022-09-22T01:47:23.145Z,4.62
2022-09-22T01:49:55.468Z,4.59
2022-09-22T01:52:27.881Z,4.60
2022-09-22T01:55:09.162Z,4.61
2022-09-22T01:57:43.573Z,4.66
2022-09-22T02:00:12.799Z,4.71
2022-09-22T02:02:48.614Z,4.73
2022-09-22T02:05:23.825Z,4.72
2022-09-22T02:07:54.672Z,4.73
2022-09-22T02:10:35.370Z,4.70
2022-09-22T02:13:04.277Z,4.66
2022-09-22T02:15:49.838Z,4.64
2022-09-22T02:18:24.191Z,4.59
2022-09-22T02:20:53.607Z,4.56
2022-09-22T02:23:21.761Z,4.59
2022-09-22T02:25:50.943Z,4.66
2022-09-22T02:28:22.818Z,4.75
2022-09-22T02:31:17.630Z,4.84
2022-09-22T02:33:43.775Z,4.91
2022-09-22T02:36:29.478Z,4.94
2022-09-22T02:39:06.453Z,4.90
2022-09-22T02:41:54.626Z,4.83
2022-09-22T02:44:30.178Z,4.79
2022-09-22T02:47:03.360Z,4.71
2022-09-22T02:49:39.210Z,4.65
2022-09-22T02:52:12.947Z,4.63
2022-09-22T02:54:41.458Z,4.63
2022-09-22T02:57:11.361Z,4.64
2022-09-22T02:59:39.621Z,4.65
2022-09-22T03:02:08.184Z,4.65
2022-09-22T03:04:38.648Z,4.65
2022-09-22T03:07:07.430Z,4.65
2022-09-22T03:09:35.591Z,4.64
2022-09-22T03:12:04.360Z,4.63
2022-09-22T03:14:32.642Z,4.59
2022-09-22T03:17:06.549Z,4.56
2022-09-22T03:19:34.787Z,4.55
2022-09-22T03:22:04.473Z,4.52
2022-09-22T03:24:32.492Z,4.49
2022-09-22T03:27:00.565Z,4.48
2022-09-22T03:29:28.916Z,4.46
2022-09-22T03:32:10.765Z,4.43
2022-09-22T03:34:38.818Z,4.40
2022-09-22T03:37:08.200Z,4.35
2022-09-22T03:39:36.470Z,4.28
2022-09-22T03:42:04.770Z,4.22
2022-09-22T03:44:32.907Z,4.19
2022-09-22T03:47:14.690Z,4.17
2022-09-22T03:49:42.713Z,4.15
2022-09-22T03:52:12.226Z,4.15
2022-09-22T03:54:43.493Z,4.12
2022-09-22T03:57:11.571Z,4.14
2022-09-22T03:59:46.889Z,4.19
2022-09-22T04:02:17.863Z,4.20
2022-09-22T04:04:48.527Z,4.20
2022-09-22T04:07:17.919Z,4.23
2022-09-22T04:09:45.887Z,4.24
2022-09-22T04:12:13.913Z,4.26
2022-09-22T04:14:41.928Z,4.25
2022-09-22T04:17:10.291Z,4.25
2022-09-22T04:19:39.704Z,4.25
2022-09-22T04:22:07.835Z,4.25
2022-09-22T04:24:37.544Z,4.24
2022-09-22T04:27:26.162Z,4.22
2022-09-22T04:29:54.293Z,4.19
2022-09-22T04:32:22.308Z,4.15
2022-09-22T04:34:50.467Z,4.16
2022-09-22T04:37:18.678Z,4.18
2022-09-22T04:39:48.208Z,4.20
2022-09-22T04:42:17.319Z,4.23
2022-09-22T04:44:47.330Z,4.26
2022-09-22T04:47:15.340Z,4.24
2022-09-22T04:49:43.365Z,4.26
2022-09-22T04:52:16.961Z,4.30
2022-09-22T04:54:44.991Z,4.33
2022-09-22T04:57:19.661Z,4.37
2022-09-22T04:59:48.559Z,4.39
2022-09-22T05:02:16.749Z,4.42
2022-09-22T05:04:44.869Z,4.43
2022-09-22T05:07:12.902Z,4.46
2022-09-22T05:09:41.045Z,4.48
2022-09-22T05:12:09.281Z,4.50
2022-09-22T05:14:38.993Z,4.52
2022-09-22T05:17:07.308Z,4.53
2022-09-22T05:19:41.291Z,4.59
2022-09-22T05:22:10.361Z,4.70
2022-09-22T05:24:42.593Z,4.77
2022-09-22T05:27:10.615Z,4.83
2022-09-22T05:29:42.840Z,4.95
2022-09-22T05:32:10.869Z,5.03
2022-09-22T05:34:45.143Z,5.13
2022-09-22T05:37:13.249Z,5.23
2022-09-22T05:39:41.340Z,5.35
2022-09-22T05:42:11.170Z,5.47
2022-09-22T05:44:43.928Z,5.56
2022-09-22T05:47:11.961Z,5.68
2022-09-22T05:49:39.977Z,5.81
2022-09-22T05:52:08.163Z,5.90
2022-09-22T05:54:36.130Z,6.03
2022-09-22T05:57:04.437Z,6.18
2022-09-22T05:59:38.572Z,6.35
2022-09-22T06:02:23.732Z,6.51
2022-09-22T06:04:54.338Z,6.67
2022-09-22T06:07:24.236Z,6.82
2022-09-22T06:09:52.728Z,6.99
2022-09-22T06:12:23.363Z,7.13
2022-09-22T06:14:52.586Z,7.29
2022-09-22T06:17:23.295Z,7.45
2022-09-22T06:19:51.298Z,7.59
2022-09-22T06:22:19.626Z,7.74
2022-09-22T06:24:48.876Z,7.84
2022-09-22T06:27:17.067Z,8.00
2022-09-22T06:29:45.622Z,8.17
2022-09-22T06:32:13.878Z,8.33
2022-09-22T06:34:47.007Z,8.48
2022-09-22T06:37:16.271Z,8.62
2022-09-22T06:39:44.299Z,8.76
2022-09-22T06:42:16.098Z,8.82
2022-09-22T06:44:44.523Z,8.89
2022-09-22T06:47:12.659Z,8.96
2022-09-22T06:49:42.207Z,9.07
2022-09-22T06:52:14.907Z,9.16
2022-09-22T06:54:44.803Z,9.28
2022-09-22T06:57:13.312Z,9.40
2022-09-22T06:59:41.337Z,9.52
2022-09-22T07:02:11.467Z,9.66
2022-09-22T07:04:40.060Z,9.75
2022-09-22T07:07:08.861Z,9.83
2022-09-22T07:09:38.476Z,9.92
2022-09-22T07:12:07.320Z,10.08
2022-09-22T07:14:37.534Z,10.22
2022-09-22T07:17:06.187Z,10.35
2022-09-22T07:19:39.076Z,10.54
2022-09-22T07:22:08.213Z,10.69
2022-09-22T07:24:36.301Z,10.82
2022-09-22T07:27:07.427Z,10.97
2022-09-22T07:29:40.156Z,11.10
2022-09-22T07:32:08.188Z,11.24
2022-09-22T07:34:36.490Z,11.39
2022-09-22T07:37:04.522Z,11.51
2022-09-22T07:39:41.336Z,11.62
2022-09-22T07:42:10.804Z,11.76
2022-09-22T07:44:56.401Z,11.90
2022-09-22T07:47:38.324Z,12.04
2022-09-22T07:50:07.407Z,12.17
2022-09-22T07:52:35.860Z,12.26
2022-09-22T07:55:03.936Z,12.37
2022-09-22T07:57:38.455Z,12.51
2022-09-22T08:00:07.611Z,12.63
2022-09-22T08:02:36.456Z,12.79
2022-09-22T08:05:04.722Z,12.91
2022-09-22T08:07:36.250Z,13.03
2022-09-22T08:10:04.759Z,13.14
2022-09-22T08:12:35.106Z,13.25
2022-09-22T08:15:03.638Z,13.35
2022-09-22T08:17:31.770Z,13.47
2022-09-22T08:20:02.647Z,13.63
2022-09-22T08:22:35.327Z,13.74
2022-09-22T08:25:03.574Z,13.74
2022-09-22T08:27:36.753Z,13.71
2022-09-22T08:30:06.115Z,13.75
2022-09-22T08:32:36.788Z,13.82
2022-09-22T08:35:09.076Z,13.85
2022-09-22T08:37:41.786Z,13.90
2022-09-22T08:40:16.643Z,13.98
2022-09-22T08:42:46.635Z,14.08
2022-09-22T08:45:27.303Z,14.19
2022-09-22T08:48:16.561Z,14.32
2022-09-22T08:51:07.328Z,14.42
2022-09-22T08:53:43.862Z,14.52
2022-09-22T08:56:26.478Z,14.63
2022-09-22T08:59:03.079Z,14.72
2022-09-22T09:02:02.834Z,14.84
2022-09-22T09:05:05.050Z,14.97
2022-09-22T09:07:45.820Z,15.12
2022-09-22T09:10:30.134Z,15.22
2022-09-22T09:13:10.172Z,15.32
2022-09-22T09:15:50.212Z,15.34
2022-09-22T09:18:24.372Z,15.37
2022-09-22T09:20:53.465Z,15.37
2022-09-22T09:25:22.108Z,15.42
2022-09-22T09:26:18.490Z,15.51
2022-09-22T09:29:03.718Z,15.48
2022-09-22T09:31:39.844Z,15.57
2022-09-22T09:34:12.183Z,15.68
2022-09-22T09:36:44.238Z,15.81
2022-09-22T09:39:15.517Z,15.92
2022-09-22T09:41:48.838Z,15.98
2022-09-22T09:44:20.366Z,16.08
2022-09-22T09:47:03.698Z,16.15
2022-09-22T09:49:32.281Z,16.20
2022-09-22T09:52:03.196Z,16.22
2022-09-22T09:54:31.363Z,16.12
2022-09-22T09:57:05.452Z,16.05
2022-09-22T09:59:51.556Z,16.04
2022-09-22T10:02:27.450Z,16.14
2022-09-22T10:04:58.632Z,16.20
2022-09-22T10:07:29.177Z,16.28
2022-09-22T10:10:18.007Z,16.37
2022-09-22T10:13:06.671Z,16.44
2022-09-22T10:15:36.450Z,16.58
2022-09-22T10:18:25.344Z,16.73
2022-09-22T10:21:04.238Z,16.82
2022-09-22T10:23:33.176Z,16.84
2022-09-22T10:26:18.987Z,16.88
2022-09-22T10:29:16.773Z,16.90
2022-09-22T10:32:02.773Z,16.99
2022-09-22T10:34:33.471Z,17.06
2022-09-22T10:37:03.128Z,17.14
2022-09-22T10:39:40.644Z,17.06
2022-09-22T10:42:21.348Z,17.09
2022-09-22T10:44:57.475Z,17.18
2022-09-22T10:47:34.253Z,17.26
2022-09-22T10:50:29.615Z,17.36
2022-09-22T10:53:05.974Z,17.38
2022-09-22T10:55:37.328Z,17.34
2022-09-22T11:01:32.337Z,17.40
2022-09-22T11:04:24.940Z,17.55
2022-09-22T11:07:34.906Z,17.59
2022-09-22T11:10:31.444Z,17.77
2022-09-22T11:13:10.827Z,17.91
2022-09-22T11:15:58.351Z,17.95
2022-09-22T11:18:56.112Z,18.01
2022-09-22T11:21:38.230Z,18.10
2022-09-22T11:24:25.552Z,18.22
2022-09-22T11:26:57.296Z,18.27
2022-09-22T11:29:54.064Z,18.32
2022-09-22T11:32:57.019Z,18.39
2022-09-22T11:35:51.191Z,18.50
2022-09-22T11:38:47.824Z,18.47
2022-09-22T11:41:29.580Z,18.53
2022-09-22T11:44:24.404Z,18.67
2022-09-22T11:47:24.815Z,18.78
2022-09-22T11:50:18.215Z,18.88
2022-09-22T11:53:04.109Z,18.78
2022-09-22T11:55:38.064Z,18.46
2022-09-22T11:58:11.372Z,18.33
2022-09-22T12:00:47.240Z,18.16
2022-09-22T12:03:21.994Z,18.13
2022-09-22T12:05:55.655Z,18.13
2022-09-22T12:08:30.465Z,18.29
2022-09-22T12:10:59.377Z,18.47
2022-09-22T12:13:29.296Z,18.56
2022-09-22T12:16:07.483Z,18.61
2022-09-22T12:18:44.212Z,18.78
2022-09-22T12:21:27.507Z,18.89
2022-09-22T12:24:01.342Z,18.88
2022-09-22T12:26:32.772Z,18.89
2022-09-22T12:29:02.769Z,18.89
2022-09-22T12:31:36.400Z,18.88
2022-09-22T12:34:07.119Z,18.81
2022-09-22T12:36:38.371Z,18.88
2022-09-22T12:39:18.196Z,18.71
2022-09-22T12:41:50.563Z,18.60
2022-09-22T12:44:23.170Z,18.52
2022-09-22T12:46:52.015Z,18.57
2022-09-22T12:49:23.689Z,18.58
2022-09-22T12:52:04.173Z,18.55
2022-09-22T12:54:39.164Z,18.45
2022-09-22T12:57:28.853Z,18.45
2022-09-22T13:00:32.903Z,18.41
2022-09-22T13:03:24.417Z,18.35
2022-09-22T13:05:53.842Z,18.33
2022-09-22T13:08:27.144Z,18.23
2022-09-22T13:11:01.924Z,18.22
2022-09-22T13:13:52.648Z,18.18
2022-09-22T13:16:37.457Z,18.09
2022-09-22T13:19:11.148Z,18.03
2022-09-22T13:21:41.727Z,17.89
2022-09-22T13:24:19.604Z,17.72
2022-09-22T13:26:49.029Z,17.64
2022-09-22T13:29:19.841Z,17.62
2022-09-22T13:31:51.194Z,17.75
2022-09-22T13:34:30.146Z,17.86
2022-09-22T13:37:01.060Z,17.73
2022-09-22T13:39:32.535Z,17.65
2022-09-22T13:42:07.228Z,17.50
2022-09-22T13:44:40.169Z,17.54
2022-09-22T13:47:18.493Z,17.62
2022-09-22T13:49:51.278Z,17.71
2022-09-22T13:52:22.910Z,17.86
2022-09-22T13:55:04.026Z,17.97
2022-09-22T13:57:37.340Z,18.07
2022-09-22T14:00:10.408Z,18.12
2022-09-22T14:02:46.362Z,18.11
2022-09-22T14:05:20.559Z,18.04
2022-09-22T14:08:08.210Z,17.86
2022-09-22T14:10:38.307Z,17.74
2022-09-22T14:13:40.022Z,17.56
2022-09-22T14:16:16.430Z,17.39
2022-09-22T14:18:54.446Z,17.34
2022-09-22T14:21:23.543Z,17.26
2022-09-22T14:23:53.441Z,17.20
2022-09-22T14:26:30.433Z,17.14
2022-09-22T14:29:14.801Z,17.03
2022-09-22T14:31:54.067Z,17.01
2022-09-22T14:34:26.653Z,16.95
2022-09-22T14:36:58.835Z,16.92
2022-09-22T14:39:34.242Z,16.92
2022-09-22T14:42:12.045Z,16.87
2022-09-22T14:44:46.633Z,16.87
2022-09-22T14:47:24.757Z,16.88
2022-09-22T14:50:09.803Z,16.87
2022-09-22T14:52:41.929Z,16.86
2022-09-22T14:55:16.979Z,16.81
2022-09-22T14:57:48.605Z,16.81
2022-09-22T15:00:36.826Z,16.81
2022-09-22T15:03:17.030Z,16.77
2022-09-22T15:05:45.521Z,16.72
2022-09-22T15:08:18.985Z,16.69
2022-09-22T15:10:54.785Z,16.71
2022-09-22T15:13:30.931Z,16.61
2022-09-22T15:16:00.714Z,16.68
2022-09-22T15:18:30.989Z,16.67
2022-09-22T15:21:05.536Z,16.69
2022-09-22T15:23:42.167Z,16.68
2022-09-22T15:26:22.895Z,16.66
2022-09-22T15:28:55.166Z,16.61
2022-09-22T15:31:27.259Z,16.58
2022-09-22T15:33:56.275Z,16.62
2022-09-22T15:36:25.972Z,16.65
2022-09-22T15:39:00.304Z,16.69
2022-09-22T15:41:29.144Z,16.91
2022-09-22T15:44:20.451Z,17.05
2022-09-22T15:46:55.538Z,17.57
2022-09-22T15:49:29.812Z,18.03
2022-09-22T15:52:07.010Z,18.59
2022-09-22T15:54:35.162Z,19.25
2022-09-22T15:57:06.516Z,19.44
2022-09-22T15:59:35.509Z,19.61
2022-09-22T16:02:12.288Z,19.32
2022-09-22T16:04:40.844Z,18.92
2022-09-22T16:07:16.511Z,18.58
2022-09-22T16:10:03.393Z,18.15
2022-09-22T16:12:31.988Z,17.84
2022-09-22T16:15:03.127Z,17.59
2022-09-22T16:17:34.083Z,17.23
2022-09-22T16:20:04.642Z,17.09
2022-09-22T16:22:34.095Z,16.86
2022-09-22T16:25:02.613Z,16.66
2022-09-22T16:27:32.681Z,16.47
2022-09-22T16:30:09.272Z,16.30
2022-09-22T16:32:38.991Z,16.14
2022-09-22T16:35:24.191Z,16.03
2022-09-22T16:37:56.232Z,15.95
2022-09-22T16:40:29.738Z,15.87
2022-09-22T16:42:57.945Z,15.78
2022-09-22T16:45:43.754Z,15.67
2022-09-22T16:48:14.419Z,15.62
2022-09-22T16:50:46.082Z,15.56
2022-09-22T16:53:24.345Z,15.54
2022-09-22T16:55:52.978Z,15.46
2022-09-22T16:58:21.115Z,15.44
2022-09-22T17:00:51.965Z,15.37
2022-09-22T17:03:21.851Z,15.29
2022-09-22T17:05:50.029Z,15.23
2022-09-22T17:08:24.416Z,15.13
2022-09-22T17:10:55.117Z,15.03
2022-09-22T17:13:28.085Z,14.95
2022-09-22T17:16:22.103Z,14.80
2022-09-22T17:18:53.306Z,14.75
2022-09-22T17:21:22.725Z,14.68
2022-09-22T17:23:52.826Z,14.64
2022-09-22T17:26:22.292Z,14.58
2022-09-22T17:28:52.762Z,14.56
2022-09-22T17:31:21.133Z,14.55
2022-09-22T17:34:01.237Z,14.54
2022-09-22T17:36:31.396Z,14.52
2022-09-22T17:39:07.690Z,14.49
2022-09-22T17:41:35.937Z,14.49
2022-09-22T17:44:22.038Z,14.43
2022-09-22T17:47:15.421Z,14.45
2022-09-22T17:50:00.618Z,14.43
2022-09-22T17:52:47.855Z,14.43
2022-09-22T17:55:20.696Z,14.42
2022-09-22T17:57:50.539Z,14.43
2022-09-22T18:00:21.828Z,14.41
2022-09-22T18:02:56.913Z,14.42
2022-09-22T18:05:27.377Z,14.43
2022-09-22T18:07:59.448Z,14.41
2022-09-22T18:10:34.461Z,14.39
2022-09-22T18:13:05.302Z,14.38
2022-09-22T18:15:42.649Z,14.35
2022-09-22T18:18:11.278Z,14.32
2022-09-22T18:20:44.747Z,14.26
2022-09-22T18:23:14.616Z,14.20
2022-09-22T18:25:42.938Z,14.21
2022-09-22T18:28:11.456Z,14.15
2022-09-22T18:30:40.692Z,14.20
2022-09-22T18:33:31.435Z,14.15
2022-09-22T18:35:59.826Z,14.14
2022-09-22T18:38:32.910Z,14.11
2022-09-22T18:41:01.337Z,14.11
2022-09-22T18:43:30.450Z,14.09
2022-09-22T18:45:59.929Z,14.06
2022-09-22T18:48:42.755Z,14.04
2022-09-22T18:51:13.363Z,14.01
2022-09-22T18:53:43.664Z,13.99
2022-09-22T18:56:12.761Z,13.98
2022-09-22T18:58:40.872Z,13.94
2022-09-22T19:01:11.818Z,13.93
2022-09-22T19:03:41.297Z,13.93
2022-09-22T19:06:09.526Z,13.92
2022-09-22T19:08:37.671Z,13.90
2022-09-22T19:11:07.221Z,13.88
2022-09-22T19:13:35.877Z,13.84
2022-09-22T19:16:05.318Z,13.84
2022-09-22T19:18:33.880Z,13.83
2022-09-22T19:21:03.882Z,13.81
2022-09-22T19:23:33.151Z,13.77
2022-09-22T19:26:08.856Z,13.76
2022-09-22T19:28:37.019Z,13.74
2022-09-22T19:31:05.306Z,13.69
2022-09-22T19:33:34.554Z,13.65
2022-09-22T19:36:03.116Z,13.61
2022-09-22T19:38:33.933Z,13.54
2022-09-22T19:41:01.999Z,13.51
2022-09-22T19:43:33.459Z,13.48
2022-09-22T19:46:02.633Z,13.44
2022-09-22T19:48:30.855Z,13.37
2022-09-22T19:50:59.614Z,13.39
2022-09-22T19:53:30.706Z,13.37
2022-09-22T19:55:59.164Z,13.36
2022-09-22T19:58:29.229Z,13.35
2022-09-22T20:00:59.103Z,13.31
2022-09-22T20:03:33.667Z,13.34
2022-09-22T20:06:01.721Z,13.37
2022-09-22T20:08:35.333Z,13.35
2022-09-22T20:11:25.086Z,13.37
2022-09-22T20:14:11.387Z,13.29
2022-09-22T20:16:44.576Z,13.38
2022-09-22T20:19:14.173Z,13.33
2022-09-22T20:21:50.177Z,13.36
2022-09-22T20:24:19.779Z,13.37
2022-09-22T20:26:48.050Z,13.35
2022-09-22T20:29:17.895Z,13.35
2022-09-22T20:31:49.459Z,13.35
2022-09-22T20:34:19.871Z,13.35
2022-09-22T20:36:47.977Z,13.33
2022-09-22T20:39:16.132Z,13.35
2022-09-22T20:41:46.644Z,13.34
2022-09-22T20:44:16.245Z,13.33
2022-09-22T20:46:44.647Z,13.33
2022-09-22T20:49:15.442Z,13.30
2022-09-22T20:51:44.262Z,13.28
2022-09-22T20:54:12.929Z,13.24
2022-09-22T20:56:42.924Z,13.22
2022-09-22T20:59:11.284Z,13.18
2022-09-22T21:01:39.630Z,13.18
2022-09-22T21:04:14.133Z,13.16
2022-09-22T21:06:45.477Z,13.13
2022-09-22T21:09:45.767Z,13.10
2022-09-22T21:12:19.146Z,13.10
2022-09-22T21:14:47.161Z,13.09
2022-09-22T21:17:15.586Z,13.11
2022-09-22T21:19:45.325Z,13.11
2022-09-22T21:22:15.639Z,13.10
2022-09-22T21:24:45.824Z,13.11
2022-09-22T21:27:14.510Z,13.10
2022-09-22T21:29:42.803Z,13.09
2022-09-22T21:32:11.305Z,13.06
2022-09-22T21:34:39.403Z,13.06
2022-09-22T21:37:07.473Z,13.04
2022-09-22T21:39:36.959Z,13.02
2022-09-22T21:42:05.968Z,12.98
2022-09-22T21:44:34.279Z,12.93
2022-09-22T21:47:02.390Z,12.85
2022-09-22T21:49:30.488Z,12.80
2022-09-22T21:51:58.720Z,12.73
2022-09-22T21:54:31.207Z,12.64
2022-09-22T21:57:00.637Z,12.57
2022-09-22T21:59:30.255Z,12.49
2022-09-22T22:01:58.739Z,12.44
2022-09-22T22:04:30.230Z,12.38
2022-09-22T22:06:58.360Z,12.34
2022-09-22T22:09:26.487Z,12.30
2022-09-22T22:11:56.718Z,12.29
2022-09-22T22:14:34.996Z,12.27
2022-09-22T22:17:03.485Z,12.23
2022-09-22T22:19:31.570Z,12.25
2022-09-22T22:21:59.621Z,12.26
2022-09-22T22:24:36.673Z,12.26
2022-09-22T22:27:06.989Z,12.18
2022-09-22T22:29:37.032Z,12.22
2022-09-22T22:32:06.489Z,12.19
2022-09-22T22:34:35.405Z,12.18
2022-09-22T22:37:04.667Z,12.17
2022-09-22T22:39:32.715Z,12.16
2022-09-22T22:42:10.542Z,12.14
2022-09-22T22:44:39.916Z,12.13
2022-09-22T22:47:08.702Z,12.10
2022-09-22T22:49:36.742Z,12.01
2022-09-22T22:52:10.000Z,12.05
2022-09-22T22:54:39.701Z,11.99
2022-09-22T22:57:12.694Z,11.95
2022-09-22T22:59:42.827Z,11.89
2022-09-22T23:02:12.726Z,11.86
2022-09-22T23:04:40.714Z,11.78
2022-09-22T23:07:08.731Z,11.74
2022-09-22T23:09:39.092Z,11.71
2022-09-22T23:12:10.644Z,11.67
2022-09-22T23:14:38.720Z,11.62
2022-09-22T23:17:08.243Z,11.55
2022-09-22T23:19:36.449Z,11.51
2022-09-22T23:22:04.821Z,11.43
2022-09-22T23:24:32.804Z,11.36
2022-09-22T23:27:05.728Z,11.32
2022-09-22T23:29:34.402Z,11.24
2022-09-22T23:32:03.066Z,11.23
2022-09-22T23:34:32.512Z,11.23
2022-09-22T23:37:00.471Z,11.23
2022-09-22T23:39:34.529Z,11.15
2022-09-22T23:42:02.648Z,11.21
2022-09-22T23:44:41.281Z,11.18
2022-09-22T23:47:12.231Z,11.15
2022-09-22T23:49:45.028Z,11.12
2022-09-22T23:52:13.136Z,11.08
2022-09-22T23:54:41.280Z,11.04
2022-09-22T23:57:09.342Z,10.97
2022-09-22T23:59:37.783Z,10.91
